Terminal Aerodrome Forecast
Issued by NWS Medford, OR

Home | Current Version | Previous Version | Text Only | Print | Product List | Glossary On
Versions: 1 2 3 4 5 6 7 8 9 10 11 12 13 14 15 16 17 18 19 20
000
FTUS46 KMFR 201746
TAFMFR
TAF
KMFR 201746Z 2018/2118 VRB03KT P6SM FEW035 OVC100
     FM210500 34002KT P6SM -SHRA SCT030 OVC050
     FM211300 34003KT P6SM -SHSN BKN028 OVC040=

USA.gov is the U.S. government's official web portal to all federal, state and local government web resources and services.